sensor_id;sensor_type;location;lat;lon;timestamp;pressure;altitude;pressure_sealevel;temperature;humidity
50852;BME280;43953;45.508;-122.806;2024-01-11T00:00:00;100070.88;;;24.60;37.21
50852;BME280;43953;45.508;-122.806;2024-01-11T00:00:31;100072.34;;;24.57;37.41
50852;BME280;43953;45.508;-122.806;2024-01-11T00:01:03;100065.03;;;24.52;37.25
50852;BME280;43953;45.508;-122.806;2024-01-11T00:01:35;100081.41;;;24.58;37.41
50852;BME280;43953;45.508;-122.806;2024-01-11T00:02:07;100077.84;;;24.57;37.39
50852;BME280;43953;45.508;-122.806;2024-01-11T00:02:39;100074.28;;;24.57;37.31
50852;BME280;43953;45.508;-122.806;2024-01-11T00:03:11;100078.16;;;24.56;37.27
50852;BME280;43953;45.508;-122.806;2024-01-11T00:03:42;100069.41;;;24.54;37.49
50852;BME280;43953;45.508;-122.806;2024-01-11T00:04:14;100079.28;;;24.55;37.50
50852;BME280;43953;45.508;-122.806;2024-01-11T00:04:46;100074.41;;;24.51;37.72
50852;BME280;43953;45.508;-122.806;2024-01-11T00:05:17;100079.09;;;24.51;37.69
50852;BME280;43953;45.508;-122.806;2024-01-11T00:05:49;100076.34;;;24.51;37.85
50852;BME280;43953;45.508;-122.806;2024-01-11T00:06:22;100080.25;;;24.50;37.72
50852;BME280;43953;45.508;-122.806;2024-01-11T00:06:53;100078.94;;;24.47;37.66
50852;BME280;43953;45.508;-122.806;2024-01-11T00:07:25;100078.94;;;24.47;37.75
50852;BME280;43953;45.508;-122.806;2024-01-11T00:07:57;100078.94;;;24.47;37.92
50852;BME280;43953;45.508;-122.806;2024-01-11T00:08:29;100077.31;;;24.46;37.74
50852;BME280;43953;45.508;-122.806;2024-01-11T00:09:01;100083.94;;;24.45;37.24
50852;BME280;43953;45.508;-122.806;2024-01-11T00:09:33;100077.97;;;24.43;37.03
50852;BME280;43953;45.508;-122.806;2024-01-11T00:10:04;100080.72;;;24.43;37.19
50852;BME280;43953;45.508;-122.806;2024-01-11T00:10:36;100084.94;;;24.49;37.35
50852;BME280;43953;45.508;-122.806;2024-01-11T00:11:08;100083.69;;;24.56;37.42
50852;BME280;43953;45.508;-122.806;2024-01-11T00:11:40;100084.50;;;24.65;37.22
50852;BME280;43953;45.508;-122.806;2024-01-11T00:12:11;100083.75;;;24.73;37.13
50852;BME280;43953;45.508;-122.806;2024-01-11T00:12:43;100082.13;;;24.81;37.04
50852;BME280;43953;45.508;-122.806;2024-01-11T00:13:15;100076.34;;;24.91;36.92
50852;BME280;43953;45.508;-122.806;2024-01-11T00:13:47;100083.47;;;25.01;37.04
50852;BME280;43953;45.508;-122.806;2024-01-11T00:14:18;100078.78;;;25.10;36.77
50852;BME280;43953;45.508;-122.806;2024-01-11T00:14:50;100085.00;;;25.15;36.70
50852;BME280;43953;45.508;-122.806;2024-01-11T00:15:22;100082.25;;;25.24;36.55
50852;BME280;43953;45.508;-122.806;2024-01-11T00:15:53;100087.59;;;25.29;36.37
50852;BME280;43953;45.508;-122.806;2024-01-11T00:16:25;100085.81;;;25.33;36.47
50852;BME280;43953;45.508;-122.806;2024-01-11T00:16:57;100082.41;;;25.36;36.41
50852;BME280;43953;45.508;-122.806;2024-01-11T00:17:29;100087.63;;;25.38;35.95
50852;BME280;43953;45.508;-122.806;2024-01-11T00:18:01;100095.25;;;25.41;35.89
50852;BME280;43953;45.508;-122.806;2024-01-11T00:18:33;100093.28;;;25.41;35.88
50852;BME280;43953;45.508;-122.806;2024-01-11T00:19:05;100094.91;;;25.42;35.87
50852;BME280;43953;45.508;-122.806;2024-01-11T00:19:36;100089.38;;;25.34;36.02
50852;BME280;43953;45.508;-122.806;2024-01-11T00:20:09;100088.72;;;25.28;36.51
50852;BME280;43953;45.508;-122.806;2024-01-11T00:20:42;100085.16;;;25.19;36.28
50852;BME280;43953;45.508;-122.806;2024-01-11T00:21:13;100090.16;;;25.17;36.69
50852;BME280;43953;45.508;-122.806;2024-01-11T00:21:45;100093.06;;;25.12;36.54
50852;BME280;43953;45.508;-122.806;2024-01-11T00:22:17;100095.66;;;25.08;36.36
50852;BME280;43953;45.508;-122.806;2024-01-11T00:22:49;100098.22;;;25.05;36.75
50852;BME280;43953;45.508;-122.806;2024-01-11T00:23:21;100095.78;;;25.03;36.65
50852;BME280;43953;45.508;-122.806;2024-01-11T00:23:53;100093.34;;;25.02;36.71
50852;BME280;43953;45.508;-122.806;2024-01-11T00:24:24;100088.97;;;25.01;36.89
50852;BME280;43953;45.508;-122.806;2024-01-11T00:24:56;100091.25;;;24.98;36.80
50852;BME280;43953;45.508;-122.806;2024-01-11T00:25:28;100095.13;;;24.97;36.83
50852;BME280;43953;45.508;-122.806;2024-01-11T00:26:00;100094.63;;;24.95;36.85
50852;BME280;43953;45.508;-122.806;2024-01-11T00:26:31;100096.88;;;24.93;36.61
50852;BME280;43953;45.508;-122.806;2024-01-11T00:27:03;100099.66;;;24.93;36.85
50852;BME280;43953;45.508;-122.806;2024-01-11T00:27:35;100101.13;;;24.91;36.77
50852;BME280;43953;45.508;-122.806;2024-01-11T00:28:07;100094.78;;;24.90;36.87
50852;BME280;43953;45.508;-122.806;2024-01-11T00:28:39;100099.81;;;24.88;36.87
50852;BME280;43953;45.508;-122.806;2024-01-11T00:29:10;100101.25;;;24.86;36.78
50852;BME280;43953;45.508;-122.806;2024-01-11T00:29:42;100102.69;;;24.83;37.17
50852;BME280;43953;45.508;-122.806;2024-01-11T00:30:14;100103.34;;;24.80;37.05
50852;BME280;43953;45.508;-122.806;2024-01-11T00:30:46;100094.25;;;24.71;37.10
50852;BME280;43953;45.508;-122.806;2024-01-11T00:31:17;100105.13;;;24.76;37.24
50852;BME280;43953;45.508;-122.806;2024-01-11T00:31:49;100114.50;;;24.75;36.92
50852;BME280;43953;45.508;-122.806;2024-01-11T00:32:21;100105.75;;;24.73;37.14
50852;BME280;43953;45.508;-122.806;2024-01-11T00:32:52;100113.19;;;24.72;37.28
50852;BME280;43953;45.508;-122.806;2024-01-11T00:33:24;100105.91;;;24.68;37.10
50852;BME280;43953;45.508;-122.806;2024-01-11T00:33:56;100112.22;;;24.68;37.24
50852;BME280;43953;45.508;-122.806;2024-01-11T00:34:28;100109.78;;;24.67;37.47
50852;BME280;43953;45.508;-122.806;2024-01-11T00:34:59;100108.16;;;24.66;37.36
50852;BME280;43953;45.508;-122.806;2024-01-11T00:35:31;100101.03;;;24.65;37.29
50852;BME280;43953;45.508;-122.806;2024-01-11T00:36:03;100101.66;;;24.62;37.31
50852;BME280;43953;45.508;-122.806;2024-01-11T00:36:35;100107.66;;;24.64;36.99
50852;BME280;43953;45.508;-122.806;2024-01-11T00:37:08;100100.66;;;24.58;37.07
50852;BME280;43953;45.508;-122.806;2024-01-11T00:37:39;100093.03;;;24.55;36.99
50852;BME280;43953;45.508;-122.806;2024-01-11T00:38:12;100107.97;;;24.62;37.19
50852;BME280;43953;45.508;-122.806;2024-01-11T00:38:44;100103.91;;;24.60;37.14
50852;BME280;43953;45.508;-122.806;2024-01-11T00:39:15;100107.16;;;24.62;37.12
50852;BME280;43953;45.508;-122.806;2024-01-11T00:39:47;100112.97;;;24.60;37.14
50852;BME280;43953;45.508;-122.806;2024-01-11T00:40:19;100113.78;;;24.61;37.31
50852;BME280;43953;45.508;-122.806;2024-01-11T00:40:51;100116.53;;;24.61;37.14
50852;BME280;43953;45.508;-122.806;2024-01-11T00:41:22;100108.63;;;24.59;37.04
50852;BME280;43953;45.508;-122.806;2024-01-11T00:41:54;100111.66;;;24.58;37.38
50852;BME280;43953;45.508;-122.806;2024-01-11T00:42:26;100118.00;;;24.58;37.25
50852;BME280;43953;45.508;-122.806;2024-01-11T00:42:58;100111.66;;;24.58;37.18
50852;BME280;43953;45.508;-122.806;2024-01-11T00:43:29;100119.44;;;24.56;37.44
50852;BME280;43953;45.508;-122.806;2024-01-11T00:44:01;100123.31;;;24.55;37.23
50852;BME280;43953;45.508;-122.806;2024-01-11T00:44:33;100114.59;;;24.52;37.57
50852;BME280;43953;45.508;-122.806;2024-01-11T00:45:05;100126.41;;;24.53;37.27
50852;BME280;43953;45.508;-122.806;2024-01-11T00:45:37;100121.41;;;24.55;37.61
50852;BME280;43953;45.508;-122.806;2024-01-11T00:46:09;100119.59;;;24.50;37.40
50852;BME280;43953;45.508;-122.806;2024-01-11T00:46:41;100117.63;;;24.51;37.57
50852;BME280;43953;45.508;-122.806;2024-01-11T00:47:12;100121.53;;;24.50;37.84
50852;BME280;43953;45.508;-122.806;2024-01-11T00:47:44;100100.25;;;24.42;37.77
50852;BME280;43953;45.508;-122.806;2024-01-11T00:48:16;100115.56;;;24.57;37.90
50852;BME280;43953;45.508;-122.806;2024-01-11T00:48:48;100114.28;;;24.63;37.65
50852;BME280;43953;45.508;-122.806;2024-01-11T00:49:20;100118.06;;;24.75;37.67
50852;BME280;43953;45.508;-122.806;2024-01-11T00:49:52;100113.09;;;24.86;37.28
50852;BME280;43953;45.508;-122.806;2024-01-11T00:50:25;100109.53;;;24.94;37.27
50852;BME280;43953;45.508;-122.806;2024-01-11T00:50:57;100104.88;;;25.04;37.05
50852;BME280;43953;45.508;-122.806;2024-01-11T00:51:28;100107.94;;;25.11;36.98
50852;BME280;43953;45.508;-122.806;2024-01-11T00:52:00;100106.69;;;25.17;36.79
50852;BME280;43953;45.508;-122.806;2024-01-11T00:52:32;100104.59;;;25.23;36.42
50852;BME280;43953;45.508;-122.806;2024-01-11T00:53:03;100103.94;;;25.26;36.20
50852;BME280;43953;45.508;-122.806;2024-01-11T00:53:35;100109.66;;;25.29;36.42
50852;BME280;43953;45.508;-122.806;2024-01-11T00:54:07;100113.69;;;25.32;36.30
50852;BME280;43953;45.508;-122.806;2024-01-11T00:54:39;100106.72;;;25.34;36.03
50852;BME280;43953;45.508;-122.806;2024-01-11T00:55:11;100106.72;;;25.34;36.12
50852;BME280;43953;45.508;-122.806;2024-01-11T00:55:43;100112.56;;;25.33;36.29
50852;BME280;43953;45.508;-122.806;2024-01-11T00:56:18;100105.75;;;25.30;36.05
50852;BME280;43953;45.508;-122.806;2024-01-11T00:56:50;100113.53;;;25.28;36.16
50852;BME280;43953;45.508;-122.806;2024-01-11T00:57:22;100104.28;;;25.24;36.10
50852;BME280;43953;45.508;-122.806;2024-01-11T00:57:54;100104.94;;;25.21;36.49
50852;BME280;43953;45.508;-122.806;2024-01-11T00:58:26;100110.28;;;25.17;36.42
50852;BME280;43953;45.508;-122.806;2024-01-11T00:58:58;100097.91;;;25.06;36.43
50852;BME280;43953;45.508;-122.806;2024-01-11T00:59:29;100107.13;;;25.10;36.45
50852;BME280;43953;45.508;-122.806;2024-01-11T01:00:01;100109.72;;;25.07;36.75
50852;BME280;43953;45.508;-122.806;2024-01-11T01:00:33;100111.50;;;25.03;36.92
50852;BME280;43953;45.508;-122.806;2024-01-11T01:01:08;100111.16;;;24.95;36.88
50852;BME280;43953;45.508;-122.806;2024-01-11T01:01:46;100114.06;;;24.90;37.12
50852;BME280;43953;45.508;-122.806;2024-01-11T01:02:20;100115.84;;;24.86;37.64
50852;BME280;43953;45.508;-122.806;2024-01-11T01:02:52;100120.84;;;24.84;37.40
50852;BME280;43953;45.508;-122.806;2024-01-11T01:03:25;100118.72;;;24.81;37.45
50852;BME280;43953;45.508;-122.806;2024-01-11T01:03:56;100123.75;;;24.79;37.35
50852;BME280;43953;45.508;-122.806;2024-01-11T01:04:28;100117.25;;;24.75;37.63
50852;BME280;43953;45.508;-122.806;2024-01-11T01:05:00;100120.63;;;24.72;37.86
50852;BME280;43953;45.508;-122.806;2024-01-11T01:05:32;100117.41;;;24.70;37.92
50852;BME280;43953;45.508;-122.806;2024-01-11T01:06:04;100119.97;;;24.66;37.55
50852;BME280;43953;45.508;-122.806;2024-01-11T01:06:36;100114.00;;;24.64;37.93
50852;BME280;43953;45.508;-122.806;2024-01-11T01:07:08;100122.88;;;24.61;38.36
50852;BME280;43953;45.508;-122.806;2024-01-11T01:07:40;100108.56;;;24.50;38.90
50852;BME280;43953;45.508;-122.806;2024-01-11T01:08:12;100121.41;;;24.55;38.67
50852;BME280;43953;45.508;-122.806;2024-01-11T01:08:44;100121.41;;;24.55;38.28
50852;BME280;43953;45.508;-122.806;2024-01-11T01:09:16;100120.09;;;24.52;38.62
50852;BME280;43953;45.508;-122.806;2024-01-11T01:09:48;100116.81;;;24.50;38.15
50852;BME280;43953;45.508;-122.806;2024-01-11T01:10:20;100114.72;;;24.47;38.33
50852;BME280;43953;45.508;-122.806;2024-01-11T01:10:51;100122.97;;;24.47;38.45
50852;BME280;43953;45.508;-122.806;2024-01-11T01:11:23;100120.22;;;24.47;38.59
50852;BME280;43953;45.508;-122.806;2024-01-11T01:11:55;100124.91;;;24.47;38.76
50852;BME280;43953;45.508;-122.806;2024-01-11T01:12:27;100122.47;;;24.45;38.62
50852;BME280;43953;45.508;-122.806;2024-01-11T01:12:59;100126.66;;;24.43;38.79
50852;BME280;43953;45.508;-122.806;2024-01-11T01:13:31;100129.53;;;24.38;38.44
50852;BME280;43953;45.508;-122.806;2024-01-11T01:14:03;100119.97;;;24.35;38.91
50852;BME280;43953;45.508;-122.806;2024-01-11T01:14:35;100107.59;;;24.24;38.78
50852;BME280;43953;45.508;-122.806;2024-01-11T01:15:07;100127.22;;;24.31;38.78
50852;BME280;43953;45.508;-122.806;2024-01-11T01:15:39;100128.34;;;24.30;38.61
50852;BME280;43953;45.508;-122.806;2024-01-11T01:16:11;100132.22;;;24.29;38.39
50852;BME280;43953;45.508;-122.806;2024-01-11T01:16:43;100126.22;;;24.27;38.43
50852;BME280;43953;45.508;-122.806;2024-01-11T01:17:14;100133.84;;;24.30;38.29
50852;BME280;43953;45.508;-122.806;2024-01-11T01:17:46;100135.16;;;24.33;38.39
50852;BME280;43953;45.508;-122.806;2024-01-11T01:18:18;100133.59;;;24.40;38.07
50852;BME280;43953;45.508;-122.806;2024-01-11T01:18:50;100132.84;;;24.48;37.89
50852;BME280;43953;45.508;-122.806;2024-01-11T01:19:21;100125.13;;;24.59;37.84
50852;BME280;43953;45.508;-122.806;2024-01-11T01:19:53;100131.19;;;24.70;37.63
50852;BME280;43953;45.508;-122.806;2024-01-11T01:20:25;100126.81;;;24.78;37.35
50852;BME280;43953;45.508;-122.806;2024-01-11T01:20:57;100126.22;;;24.89;37.02
50852;BME280;43953;45.508;-122.806;2024-01-11T01:21:28;100125.44;;;24.97;37.11
50852;BME280;43953;45.508;-122.806;2024-01-11T01:22:00;100132.06;;;25.05;36.92
50852;BME280;43953;45.508;-122.806;2024-01-11T01:22:32;100115.53;;;25.05;36.64
50852;BME280;43953;45.508;-122.806;2024-01-11T01:23:03;100123.22;;;25.17;36.48
50852;BME280;43953;45.508;-122.806;2024-01-11T01:23:35;100125.34;;;25.20;36.59
50852;BME280;43953;45.508;-122.806;2024-01-11T01:24:07;100129.09;;;25.24;36.38
50852;BME280;43953;45.508;-122.806;2024-01-11T01:24:39;100127.94;;;25.25;36.56
50852;BME280;43953;45.508;-122.806;2024-01-11T01:25:10;100120.81;;;25.24;36.44
50852;BME280;43953;45.508;-122.806;2024-01-11T01:25:42;100130.22;;;25.23;36.35
50852;BME280;43953;45.508;-122.806;2024-01-11T01:26:14;100124.69;;;25.14;36.46
50852;BME280;43953;45.508;-122.806;2024-01-11T01:26:46;100127.13;;;25.16;36.78
50852;BME280;43953;45.508;-122.806;2024-01-11T01:27:17;100129.97;;;25.11;36.62
50852;BME280;43953;45.508;-122.806;2024-01-11T01:27:49;100132.91;;;25.06;36.85
50852;BME280;43953;45.508;-122.806;2024-01-11T01:28:21;100131.09;;;25.01;36.93
50852;BME280;43953;45.508;-122.806;2024-01-11T01:28:52;100136.75;;;24.96;37.12
50852;BME280;43953;45.508;-122.806;2024-01-11T01:29:24;100135.28;;;24.90;36.99
50852;BME280;43953;45.508;-122.806;2024-01-11T01:29:56;100140.94;;;24.85;37.17
50852;BME280;43953;45.508;-122.806;2024-01-11T01:30:28;100138.31;;;24.80;37.38
50852;BME280;43953;45.508;-122.806;2024-01-11T01:30:59;100137.31;;;24.75;37.24
50852;BME280;43953;45.508;-122.806;2024-01-11T01:31:31;100136.19;;;24.68;37.34
50852;BME280;43953;45.508;-122.806;2024-01-11T01:32:08;100148.31;;;24.67;37.65
50852;BME280;43953;45.508;-122.806;2024-01-11T01:32:40;100148.94;;;24.64;37.69
50852;BME280;43953;45.508;-122.806;2024-01-11T01:33:12;100148.75;;;24.60;37.95
50852;BME280;43953;45.508;-122.806;2024-01-11T01:33:43;100144.69;;;24.58;37.84
50852;BME280;43953;45.508;-122.806;2024-01-11T01:34:15;100146.16;;;24.55;37.74
50852;BME280;43953;45.508;-122.806;2024-01-11T01:34:47;100148.41;;;24.53;38.05
50852;BME280;43953;45.508;-122.806;2024-01-11T01:35:19;100150.66;;;24.51;37.85
50852;BME280;43953;45.508;-122.806;2024-01-11T01:35:50;100146.59;;;24.48;37.88
50852;BME280;43953;45.508;-122.806;2024-01-11T01:36:22;100147.22;;;24.45;37.98
50852;BME280;43953;45.508;-122.806;2024-01-11T01:36:54;100152.72;;;24.45;38.10
50852;BME280;43953;45.508;-122.806;2024-01-11T01:37:26;100155.28;;;24.42;38.05
50852;BME280;43953;45.508;-122.806;2024-01-11T01:37:57;100161.13;;;24.40;38.12
50852;BME280;43953;45.508;-122.806;2024-01-11T01:38:29;100151.22;;;24.39;38.18
50852;BME280;43953;45.508;-122.806;2024-01-11T01:39:01;100148.47;;;24.39;38.00
50852;BME280;43953;45.508;-122.806;2024-01-11T01:39:37;100156.22;;;24.37;38.08
50852;BME280;43953;45.508;-122.806;2024-01-11T01:40:10;100145.47;;;24.27;38.11
50852;BME280;43953;45.508;-122.806;2024-01-11T01:40:42;100157.97;;;24.33;38.14
50852;BME280;43953;45.508;-122.806;2024-01-11T01:41:14;100157.81;;;24.29;37.95
50852;BME280;43953;45.508;-122.806;2024-01-11T01:41:46;100158.09;;;24.28;38.04
50852;BME280;43953;45.508;-122.806;2024-01-11T01:42:17;100154.88;;;24.26;37.99
50852;BME280;43953;45.508;-122.806;2024-01-11T01:42:49;100152.75;;;24.23;38.15
50852;BME280;43953;45.508;-122.806;2024-01-11T01:43:21;100151.09;;;24.22;38.04
50852;BME280;43953;45.508;-122.806;2024-01-11T01:43:53;100156.13;;;24.20;38.14
50852;BME280;43953;45.508;-122.806;2024-01-11T01:44:24;100151.44;;;24.20;38.00
50852;BME280;43953;45.508;-122.806;2024-01-11T01:44:56;100144.00;;;24.21;37.78
50852;BME280;43953;45.508;-122.806;2024-01-11T01:45:28;100149.84;;;24.28;37.60
50852;BME280;43953;45.508;-122.806;2024-01-11T01:46:00;100157.34;;;24.36;37.59
50852;BME280;43953;45.508;-122.806;2024-01-11T01:46:32;100145.63;;;24.44;37.31
50852;BME280;43953;45.508;-122.806;2024-01-11T01:47:05;100148.59;;;24.57;37.16
50852;BME280;43953;45.508;-122.806;2024-01-11T01:47:39;100148.31;;;24.67;37.07
50852;BME280;43953;45.508;-122.806;2024-01-11T01:48:11;100153.53;;;24.77;36.83
50852;BME280;43953;45.508;-122.806;2024-01-11T01:48:43;100151.31;;;24.88;36.72
50852;BME280;43953;45.508;-122.806;2024-01-11T01:49:15;100152.16;;;24.97;36.42
50852;BME280;43953;45.508;-122.806;2024-01-11T01:49:49;100149.44;;;25.06;36.25
50852;BME280;43953;45.508;-122.806;2024-01-11T01:50:21;100150.59;;;25.13;36.28
50852;BME280;43953;45.508;-122.806;2024-01-11T01:50:53;100144.16;;;25.18;35.99
50852;BME280;43953;45.508;-122.806;2024-01-11T01:51:28;100143.66;;;25.25;36.09
50852;BME280;43953;45.508;-122.806;2024-01-11T01:52:00;100146.59;;;25.28;35.85
50852;BME280;43953;45.508;-122.806;2024-01-11T01:52:33;100143.53;;;25.30;35.72
50852;BME280;43953;45.508;-122.806;2024-01-11T01:53:07;100148.22;;;25.29;36.10
50852;BME280;43953;45.508;-122.806;2024-01-11T01:53:38;100145.78;;;25.28;36.09
50852;BME280;43953;45.508;-122.806;2024-01-11T01:54:10;100151.13;;;25.24;35.97
50852;BME280;43953;45.508;-122.806;2024-01-11T01:54:43;100146.09;;;25.17;35.92
50852;BME280;43953;45.508;-122.806;2024-01-11T01:55:16;100149.75;;;25.13;36.59
50852;BME280;43953;45.508;-122.806;2024-01-11T01:55:48;100138.56;;;25.01;36.22
50852;BME280;43953;45.508;-122.806;2024-01-11T01:56:20;100153.94;;;25.02;36.38
50852;BME280;43953;45.508;-122.806;2024-01-11T01:56:53;100150.50;;;24.96;36.28
50852;BME280;43953;45.508;-122.806;2024-01-11T01:57:25;100151.00;;;24.89;36.42
50852;BME280;43953;45.508;-122.806;2024-01-11T01:57:58;100148.38;;;24.84;36.58
50852;BME280;43953;45.508;-122.806;2024-01-11T01:58:31;100156.78;;;24.79;36.92
50852;BME280;43953;45.508;-122.806;2024-01-11T01:59:03;100153.84;;;24.75;36.84
50852;BME280;43953;45.508;-122.806;2024-01-11T01:59:36;100149.31;;;24.71;36.94
50852;BME280;43953;45.508;-122.806;2024-01-11T02:00:10;100152.69;;;24.68;37.06
50852;BME280;43953;45.508;-122.806;2024-01-11T02:00:44;100151.38;;;24.65;37.25
50852;BME280;43953;45.508;-122.806;2024-01-11T02:01:18;100158.31;;;24.63;37.22
50852;BME280;43953;45.508;-122.806;2024-01-11T02:01:50;100152.66;;;24.59;37.25
50852;BME280;43953;45.508;-122.806;2024-01-11T02:02:22;100159.59;;;24.57;37.18
50852;BME280;43953;45.508;-122.806;2024-01-11T02:02:55;100155.34;;;24.50;37.27
50852;BME280;43953;45.508;-122.806;2024-01-11T02:03:28;100156.97;;;24.51;37.27
50852;BME280;43953;45.508;-122.806;2024-01-11T02:04:01;100165.56;;;24.50;37.56
50852;BME280;43953;45.508;-122.806;2024-01-11T02:04:33;100159.88;;;24.46;37.40
50852;BME280;43953;45.508;-122.806;2024-01-11T02:05:05;100166.50;;;24.45;37.37
50852;BME280;43953;45.508;-122.806;2024-01-11T02:05:38;100168.78;;;24.43;37.45
50852;BME280;43953;45.508;-122.806;2024-01-11T02:06:10;100170.97;;;24.41;37.46
50852;BME280;43953;45.508;-122.806;2024-01-11T02:06:44;100176.78;;;24.40;37.50
50852;BME280;43953;45.508;-122.806;2024-01-11T02:07:18;100176.31;;;24.38;37.50
50852;BME280;43953;45.508;-122.806;2024-01-11T02:07:50;100175.81;;;24.36;37.59
50852;BME280;43953;45.508;-122.806;2024-01-11T02:08:23;100178.03;;;24.34;37.73
50852;BME280;43953;45.508;-122.806;2024-01-11T02:08:56;100179.47;;;24.31;37.53
50852;BME280;43953;45.508;-122.806;2024-01-11T02:09:28;100175.44;;;24.28;37.47
50852;BME280;43953;45.508;-122.806;2024-01-11T02:10:02;100174.13;;;24.26;37.60
50852;BME280;43953;45.508;-122.806;2024-01-11T02:10:34;100174.44;;;24.24;37.56
50852;BME280;43953;45.508;-122.806;2024-01-11T02:11:10;100173.09;;;24.22;37.70
50852;BME280;43953;45.508;-122.806;2024-01-11T02:11:42;100177.28;;;24.19;37.61
50852;BME280;43953;45.508;-122.806;2024-01-11T02:12:15;100174.88;;;24.18;37.65
50852;BME280;43953;45.508;-122.806;2024-01-11T02:12:47;100173.44;;;24.20;37.39
50852;BME280;43953;45.508;-122.806;2024-01-11T02:13:19;100174.75;;;24.23;37.32
50852;BME280;43953;45.508;-122.806;2024-01-11T02:13:51;100168.13;;;24.24;37.18
50852;BME280;43953;45.508;-122.806;2024-01-11T02:14:24;100180.38;;;24.40;37.06
50852;BME280;43953;45.508;-122.806;2024-01-11T02:14:57;100179.00;;;24.51;36.83
50852;BME280;43953;45.508;-122.806;2024-01-11T02:15:28;100182.59;;;24.61;36.83
50852;BME280;43953;45.508;-122.806;2024-01-11T02:16:00;100176.84;;;24.71;36.30
50852;BME280;43953;45.508;-122.806;2024-01-11T02:16:32;100185.13;;;24.80;36.38
50852;BME280;43953;45.508;-122.806;2024-01-11T02:17:04;100178.53;;;24.89;36.11
50852;BME280;43953;45.508;-122.806;2024-01-11T02:17:35;100176.44;;;24.95;36.27
50852;BME280;43953;45.508;-122.806;2024-01-11T02:18:07;100182.97;;;25.08;35.79
50852;BME280;43953;45.508;-122.806;2024-01-11T02:18:39;100178.97;;;25.14;35.83
50852;BME280;43953;45.508;-122.806;2024-01-11T02:19:14;100184.81;;;25.21;35.89
50852;BME280;43953;45.508;-122.806;2024-01-11T02:19:48;100189.69;;;25.24;35.89
50852;BME280;43953;45.508;-122.806;2024-01-11T02:20:20;100184.34;;;25.28;35.74
50852;BME280;43953;45.508;-122.806;2024-01-11T02:20:52;100185.16;;;25.28;35.93
50852;BME280;43953;45.508;-122.806;2024-01-11T02:21:24;100192.13;;;25.26;35.47
50852;BME280;43953;45.508;-122.806;2024-01-11T02:22:02;100191.16;;;25.22;35.49
50852;BME280;43953;45.508;-122.806;2024-01-11T02:22:39;100194.03;;;25.16;35.92
50852;BME280;43953;45.508;-122.806;2024-01-11T02:23:16;100201.59;;;25.11;36.10
50852;BME280;43953;45.508;-122.806;2024-01-11T02:24:07;100204.31;;;25.02;36.00
50852;BME280;43953;45.508;-122.806;2024-01-11T02:24:39;100199.78;;;24.97;35.98
50852;BME280;43953;45.508;-122.806;2024-01-11T02:25:11;100201.53;;;24.93;35.99
50852;BME280;43953;45.508;-122.806;2024-01-11T02:25:43;100202.81;;;24.87;36.17
50852;BME280;43953;45.508;-122.806;2024-01-11T02:26:14;100201.81;;;24.83;36.38
50852;BME280;43953;45.508;-122.806;2024-01-11T02:27:03;100195.13;;;24.75;36.26
50852;BME280;43953;45.508;-122.806;2024-01-11T02:27:49;100205.50;;;24.70;36.69
50852;BME280;43953;45.508;-122.806;2024-01-11T02:28:21;100201.72;;;24.66;36.75
50852;BME280;43953;45.508;-122.806;2024-01-11T02:28:53;100196.88;;;24.63;36.72
50852;BME280;43953;45.508;-122.806;2024-01-11T02:29:24;100193.94;;;24.59;37.10
50852;BME280;43953;45.508;-122.806;2024-01-11T02:29:56;100194.22;;;24.58;37.03
50852;BME280;43953;45.508;-122.806;2024-01-11T02:30:28;100200.06;;;24.56;37.13
50852;BME280;43953;45.508;-122.806;2024-01-11T02:31:00;100195.19;;;24.53;37.04
50852;BME280;43953;45.508;-122.806;2024-01-11T02:31:31;100198.25;;;24.51;37.14
50852;BME280;43953;45.508;-122.806;2024-01-11T02:32:03;100205.69;;;24.51;37.11
50852;BME280;43953;45.508;-122.806;2024-01-11T02:32:37;100200.03;;;24.47;37.19
50852;BME280;43953;45.508;-122.806;2024-01-11T02:33:09;100201.47;;;24.45;37.13
50852;BME280;43953;45.508;-122.806;2024-01-11T02:33:42;100208.41;;;24.42;37.24
50852;BME280;43953;45.508;-122.806;2024-01-11T02:34:14;100211.44;;;24.41;37.34
50852;BME280;43953;45.508;-122.806;2024-01-11T02:34:46;100207.38;;;24.38;37.39
50852;BME280;43953;45.508;-122.806;2024-01-11T02:35:19;100198.31;;;24.38;37.15
50852;BME280;43953;45.508;-122.806;2024-01-11T02:35:50;100208.81;;;24.36;37.20
50852;BME280;43953;45.508;-122.806;2024-01-11T02:36:22;100204.75;;;24.33;37.06
50852;BME280;43953;45.508;-122.806;2024-01-11T02:36:55;100199.88;;;24.30;37.30
50852;BME280;43953;45.508;-122.806;2024-01-11T02:37:27;100204.06;;;24.27;37.13
50852;BME280;43953;45.508;-122.806;2024-01-11T02:37:59;100205.50;;;24.25;37.07
50852;BME280;43953;45.508;-122.806;2024-01-11T02:38:33;100210.53;;;24.23;37.27
50852;BME280;43953;45.508;-122.806;2024-01-11T02:39:06;100210.00;;;24.21;37.23
50852;BME280;43953;45.508;-122.806;2024-01-11T02:39:39;100209.50;;;24.19;37.20
50852;BME280;43953;45.508;-122.806;2024-01-11T02:40:13;100210.63;;;24.18;37.32
50852;BME280;43953;45.508;-122.806;2024-01-11T02:40:46;100216.66;;;24.20;37.35
50852;BME280;43953;45.508;-122.806;2024-01-11T02:41:18;100222.31;;;24.23;36.69
50852;BME280;43953;45.508;-122.806;2024-01-11T02:41:56;100219.47;;;24.28;37.05
50852;BME280;43953;45.508;-122.806;2024-01-11T02:42:29;100221.66;;;24.40;36.74